Byron, Michigan
Current Conditions -  °F | °C
As of 3:14 PM on Thursday 23 Oct 2014 (Local Time) from KOZW Reporting Station
Clear Clear  
Wind Chill: 55°   Ceiling: Unl
Heat Index: 55°   Visibility: 10mi
Dew Point: 38°   Wind: 0mph
Humidity: 54%   Direction: NA
Pressure: 30.15"   Gusts: NA
Location:  42.82°N, 83.94°W
Report Text: KOZW 231914Z AUTO 00000KT 10SM CLR 13/04 A3015 RMK AO2 T01260035
Loading
Personal Weather Stations






























Interactive Weather Map
Tropical Storm Tracking
New forecast layout! Learn more

10-Day Weather Forecast

Advertisements
Track Severe Weather on mobile